IGO467 VOCB-VOHS
Flight info
| Callsign | IGO467 |
|---|---|
| Flight time | 1h 1m |
| Altitude | 33000 |
| Route | LENBO W43 BIA Q22 VIRAM W57 SAKRO SARKA6 |
| Aircraft | A21N/M-SDE2E3FGHIRWXY/LB1 |
Departure
| Time | 2026-05-04 12:57 |
|---|---|
| Airport | Coimbatore International Airport (VOCB) |
Arrival
| Time | 2026-05-04 13:58 |
|---|---|
| Airport | Rajiv Gandhi International Airport (VOHS) |
| Time | Latitude | Longitude | Altitude | Speed | Heading |
|---|---|---|---|---|---|
| 2026-05-04 12:44 | 11.03018 | 77.04016 | 1323 ft | 0 kts | 315° |
| 2026-05-04 12:49 | 11.03012 | 77.04022 | 1323 ft | 2 kts | 315° |
| 2026-05-04 12:49 | 11.03001 | 77.04033 | 1323 ft | 2 kts | 315° |
| 2026-05-04 12:50 | 11.02994 | 77.04041 | 1323 ft | 0 kts | 315° |
| 2026-05-04 12:50 | 11.02985 | 77.04052 | 1323 ft | 2 kts | 289° |
| 2026-05-04 12:50 | 11.02983 | 77.04067 | 1322 ft | 2 kts | 265° |
| 2026-05-04 12:50 | 11.02987 | 77.04082 | 1321 ft | 2 kts | 238° |
| 2026-05-04 12:51 | 11.02992 | 77.04089 | 1321 ft | 1 kts | 223° |
| 2026-05-04 12:51 | 11.02996 | 77.04092 | 1321 ft | 0 kts | 225° |
| 2026-05-04 12:53 | 11.02992 | 77.04088 | 1321 ft | 2 kts | 225° |
| 2026-05-04 12:53 | 11.02979 | 77.04076 | 1322 ft | 1 kts | 225° |
| 2026-05-04 12:53 | 11.02977 | 77.04073 | 1322 ft | 0 kts | 225° |
| 2026-05-04 12:53 | 11.02965 | 77.04063 | 1322 ft | 3 kts | 205° |
| 2026-05-04 12:54 | 11.02926 | 77.04075 | 1323 ft | 9 kts | 140° |
| 2026-05-04 12:54 | 11.02881 | 77.04141 | 1321 ft | 13 kts | 84° |
| 2026-05-04 12:54 | 11.02944 | 77.04222 | 1317 ft | 16 kts | 45° |
| 2026-05-04 12:54 | 11.03034 | 77.04314 | 1312 ft | 21 kts | 46° |
| 2026-05-04 12:55 | 11.03147 | 77.04433 | 1307 ft | 24 kts | 46° |
| 2026-05-04 12:55 | 11.03267 | 77.04559 | 1302 ft | 24 kts | 45° |
| 2026-05-04 12:55 | 11.03390 | 77.04685 | 1298 ft | 25 kts | 45° |
| 2026-05-04 12:55 | 11.03510 | 77.04813 | 1295 ft | 24 kts | 50° |
| 2026-05-04 12:56 | 11.03594 | 77.04916 | 1293 ft | 12 kts | 343° |
| 2026-05-04 12:56 | 11.03589 | 77.04888 | 1294 ft | 4 kts | 206° |
| 2026-05-04 12:56 | 11.03456 | 77.04753 | 1297 ft | 60 kts | 226° |
| 2026-05-04 12:56 | 11.03006 | 77.04285 | 1313 ft | 123 kts | 225° |
| 2026-05-04 12:57 | 11.02280 | 77.03541 | 1366 ft | 169 kts | 225° |
| 2026-05-04 12:57 | 11.01419 | 77.02654 | 1794 ft | 181 kts | 226° |
| 2026-05-04 12:57 | 11.00580 | 77.01667 | 2320 ft | 193 kts | 242° |
| 2026-05-04 12:57 | 11.00421 | 77.00273 | 2703 ft | 214 kts | 285° |
| 2026-05-04 12:58 | 11.01307 | 76.99002 | 2993 ft | 240 kts | 324° |
| 2026-05-04 12:58 | 11.02949 | 76.98505 | 3360 ft | 265 kts | 0° |
| 2026-05-04 12:58 | 11.04781 | 76.98993 | 3967 ft | 278 kts | 21° |
| 2026-05-04 12:58 | 11.06513 | 76.99809 | 4788 ft | 279 kts | 23° |
| 2026-05-04 12:59 | 11.08258 | 77.00618 | 5598 ft | 280 kts | 21° |
| 2026-05-04 12:59 | 11.10065 | 77.01388 | 6415 ft | 280 kts | 20° |
| 2026-05-04 12:59 | 11.11857 | 77.02097 | 7204 ft | 281 kts | 19° |
| 2026-05-04 12:59 | 11.13683 | 77.02786 | 7988 ft | 283 kts | 18° |
| 2026-05-04 13:00 | 11.15537 | 77.03467 | 8768 ft | 284 kts | 18° |
| 2026-05-04 13:00 | 11.17366 | 77.04127 | 9520 ft | 286 kts | 18° |
| 2026-05-04 13:00 | 11.19254 | 77.04805 | 10272 ft | 289 kts | 19° |
| 2026-05-04 13:00 | 11.21157 | 77.05486 | 10736 ft | 302 kts | 19° |
| 2026-05-04 13:01 | 11.23221 | 77.06222 | 11058 ft | 320 kts | 19° |
| 2026-05-04 13:01 | 11.25351 | 77.06980 | 11437 ft | 334 kts | 19° |
| 2026-05-04 13:01 | 11.27558 | 77.07763 | 12093 ft | 340 kts | 19° |
| 2026-05-04 13:01 | 11.29776 | 77.08551 | 12823 ft | 342 kts | 19° |
| 2026-05-04 13:02 | 11.32020 | 77.09350 | 13529 ft | 345 kts | 19° |
| 2026-05-04 13:02 | 11.34294 | 77.10159 | 14224 ft | 348 kts | 19° |
| 2026-05-04 13:02 | 11.36565 | 77.10969 | 14901 ft | 351 kts | 19° |
| 2026-05-04 13:02 | 11.38862 | 77.11787 | 15570 ft | 354 kts | 19° |
| 2026-05-04 13:03 | 11.41201 | 77.12621 | 16233 ft | 357 kts | 20° |
| 2026-05-04 13:03 | 11.43548 | 77.13418 | 16878 ft | 360 kts | 17° |
| 2026-05-04 13:03 | 11.45967 | 77.14077 | 17516 ft | 363 kts | 13° |
| 2026-05-04 13:03 | 11.48423 | 77.14627 | 18140 ft | 366 kts | 13° |
| 2026-05-04 13:04 | 11.50939 | 77.15172 | 18760 ft | 370 kts | 13° |
| 2026-05-04 13:04 | 11.53430 | 77.15709 | 19356 ft | 373 kts | 13° |
| 2026-05-04 13:04 | 11.55973 | 77.16259 | 19946 ft | 376 kts | 13° |
| 2026-05-04 13:04 | 11.58520 | 77.16812 | 20517 ft | 379 kts | 13° |
| 2026-05-04 13:05 | 11.61110 | 77.17374 | 21077 ft | 382 kts | 13° |
| 2026-05-04 13:05 | 11.63700 | 77.17938 | 21620 ft | 384 kts | 13° |
| 2026-05-04 13:05 | 11.66295 | 77.18503 | 22146 ft | 387 kts | 13° |
| 2026-05-04 13:05 | 11.68956 | 77.19083 | 22664 ft | 390 kts | 13° |
| 2026-05-04 13:06 | 11.71586 | 77.19656 | 23160 ft | 393 kts | 13° |
| 2026-05-04 13:06 | 11.74244 | 77.20235 | 23644 ft | 396 kts | 13° |
| 2026-05-04 13:06 | 11.76935 | 77.20821 | 24114 ft | 399 kts | 13° |
| 2026-05-04 13:06 | 11.79670 | 77.21418 | 24572 ft | 401 kts | 13° |
| 2026-05-04 13:07 | 11.82377 | 77.22008 | 25008 ft | 404 kts | 14° |
| 2026-05-04 13:07 | 11.85134 | 77.22610 | 25434 ft | 406 kts | 14° |
| 2026-05-04 13:07 | 11.87879 | 77.23209 | 25842 ft | 409 kts | 14° |
| 2026-05-04 13:07 | 11.90657 | 77.23815 | 26239 ft | 411 kts | 14° |
| 2026-05-04 13:08 | 11.93448 | 77.24425 | 26622 ft | 414 kts | 14° |
| 2026-05-04 13:08 | 11.96259 | 77.25038 | 26996 ft | 416 kts | 14° |
| 2026-05-04 13:08 | 11.99104 | 77.25660 | 27355 ft | 419 kts | 14° |
| 2026-05-04 13:08 | 12.01934 | 77.26278 | 27701 ft | 421 kts | 14° |
| 2026-05-04 13:09 | 12.04806 | 77.26906 | 28042 ft | 423 kts | 14° |
| 2026-05-04 13:09 | 12.07663 | 77.27531 | 28370 ft | 425 kts | 14° |
| 2026-05-04 13:09 | 12.10574 | 77.28167 | 28693 ft | 427 kts | 14° |
| 2026-05-04 13:09 | 12.13487 | 77.28862 | 29009 ft | 429 kts | 17° |
| 2026-05-04 13:10 | 12.16323 | 77.29700 | 29311 ft | 430 kts | 20° |
| 2026-05-04 13:10 | 12.19161 | 77.30707 | 29608 ft | 431 kts | 22° |
| 2026-05-04 13:10 | 12.21985 | 77.31772 | 29897 ft | 433 kts | 22° |
| 2026-05-04 13:10 | 12.24793 | 77.32840 | 30176 ft | 435 kts | 22° |
| 2026-05-04 13:11 | 12.27627 | 77.33919 | 30448 ft | 437 kts | 22° |
| 2026-05-04 13:11 | 12.30438 | 77.34988 | 30779 ft | 437 kts | 22° |
| 2026-05-04 13:11 | 12.33293 | 77.36073 | 31163 ft | 435 kts | 22° |
| 2026-05-04 13:11 | 12.36104 | 77.37141 | 31498 ft | 435 kts | 22° |
| 2026-05-04 13:12 | 12.38949 | 77.38222 | 31764 ft | 436 kts | 22° |
| 2026-05-04 13:12 | 12.41790 | 77.39302 | 32004 ft | 437 kts | 22° |
| 2026-05-04 13:12 | 12.44605 | 77.40372 | 32243 ft | 438 kts | 22° |
| 2026-05-04 13:12 | 12.47461 | 77.41457 | 32484 ft | 439 kts | 22° |
| 2026-05-04 13:13 | 12.50313 | 77.42542 | 32717 ft | 440 kts | 22° |
| 2026-05-04 13:13 | 12.53184 | 77.43633 | 32928 ft | 441 kts | 22° |
| 2026-05-04 13:13 | 12.56044 | 77.44721 | 32972 ft | 443 kts | 22° |
| 2026-05-04 13:14 | 12.61799 | 77.46910 | 32978 ft | 443 kts | 22° |
| 2026-05-04 13:14 | 12.67552 | 77.49100 | 32979 ft | 443 kts | 22° |
| 2026-05-04 13:15 | 12.73294 | 77.51286 | 32979 ft | 443 kts | 22° |
| 2026-05-04 13:15 | 12.79082 | 77.53491 | 32979 ft | 443 kts | 22° |
| 2026-05-04 13:16 | 12.84821 | 77.55679 | 32979 ft | 443 kts | 22° |
| 2026-05-04 13:16 | 12.90586 | 77.57877 | 32979 ft | 443 kts | 22° |
| 2026-05-04 13:17 | 12.96322 | 77.60066 | 32979 ft | 443 kts | 22° |
| 2026-05-04 13:17 | 13.02100 | 77.62271 | 32979 ft | 443 kts | 22° |
| 2026-05-04 13:18 | 13.07826 | 77.64458 | 32979 ft | 443 kts | 22° |
| 2026-05-04 13:18 | 13.13569 | 77.66653 | 32980 ft | 443 kts | 23° |
| 2026-05-04 13:19 | 13.19352 | 77.68792 | 32979 ft | 444 kts | 20° |
| 2026-05-04 13:19 | 13.25299 | 77.70408 | 32979 ft | 446 kts | 15° |
| 2026-05-04 13:20 | 13.31344 | 77.71717 | 32979 ft | 446 kts | 14° |
| 2026-05-04 13:20 | 13.37395 | 77.73014 | 32979 ft | 446 kts | 14° |
| 2026-05-04 13:21 | 13.43449 | 77.74316 | 32979 ft | 446 kts | 14° |
| 2026-05-04 13:21 | 13.49503 | 77.75622 | 32979 ft | 446 kts | 14° |
| 2026-05-04 13:22 | 13.55524 | 77.76922 | 32979 ft | 446 kts | 14° |
| 2026-05-04 13:22 | 13.61586 | 77.78232 | 32979 ft | 446 kts | 14° |
| 2026-05-04 13:23 | 13.67629 | 77.79538 | 32979 ft | 446 kts | 14° |
| 2026-05-04 13:23 | 13.73656 | 77.80841 | 32979 ft | 446 kts | 14° |
| 2026-05-04 13:24 | 13.79714 | 77.82152 | 32979 ft | 446 kts | 14° |
| 2026-05-04 13:24 | 13.85743 | 77.83457 | 32979 ft | 446 kts | 14° |
| 2026-05-04 13:25 | 13.94828 | 77.85427 | 32979 ft | 446 kts | 14° |
| 2026-05-04 13:25 | 14.00860 | 77.86735 | 32979 ft | 446 kts | 14° |
| 2026-05-04 13:26 | 14.06969 | 77.87907 | 32980 ft | 447 kts | 12° |
| 2026-05-04 13:26 | 14.13069 | 77.88949 | 32980 ft | 447 kts | 12° |
| 2026-05-04 13:27 | 14.19176 | 77.89992 | 32979 ft | 447 kts | 12° |
| 2026-05-04 13:27 | 14.25270 | 77.91035 | 32979 ft | 447 kts | 12° |
| 2026-05-04 13:28 | 14.31404 | 77.92088 | 32979 ft | 447 kts | 12° |
| 2026-05-04 13:28 | 14.37514 | 77.93138 | 32979 ft | 447 kts | 12° |
| 2026-05-04 13:29 | 14.43621 | 77.94189 | 32979 ft | 447 kts | 12° |
| 2026-05-04 13:29 | 14.49717 | 77.95234 | 32979 ft | 447 kts | 12° |
| 2026-05-04 13:30 | 14.55824 | 77.96263 | 32979 ft | 447 kts | 12° |
| 2026-05-04 13:30 | 14.61930 | 77.97292 | 32979 ft | 447 kts | 12° |
| 2026-05-04 13:31 | 14.68074 | 77.98331 | 32979 ft | 447 kts | 12° |
| 2026-05-04 13:31 | 14.74178 | 77.99364 | 32979 ft | 447 kts | 12° |
| 2026-05-04 13:32 | 14.80208 | 78.00654 | 32979 ft | 445 kts | 17° |
| 2026-05-04 13:32 | 14.86178 | 78.02260 | 32979 ft | 445 kts | 17° |
| 2026-05-04 13:33 | 14.92171 | 78.03863 | 32979 ft | 445 kts | 17° |
| 2026-05-04 13:33 | 14.98145 | 78.05443 | 32979 ft | 445 kts | 17° |
| 2026-05-04 13:34 | 15.04114 | 78.07014 | 32979 ft | 445 kts | 17° |
| 2026-05-04 13:34 | 15.10105 | 78.08588 | 32979 ft | 445 kts | 17° |
| 2026-05-04 13:35 | 15.19055 | 78.10938 | 32979 ft | 445 kts | 17° |
| 2026-05-04 13:36 | 15.25047 | 78.12514 | 32979 ft | 445 kts | 17° |
| 2026-05-04 13:36 | 15.31017 | 78.14084 | 32979 ft | 445 kts | 17° |
| 2026-05-04 13:37 | 15.37010 | 78.15661 | 32979 ft | 445 kts | 17° |
| 2026-05-04 13:37 | 15.42982 | 78.17234 | 32979 ft | 445 kts | 17° |
| 2026-05-04 13:38 | 15.48960 | 78.18809 | 32979 ft | 445 kts | 17° |
| 2026-05-04 13:38 | 15.54947 | 78.20386 | 32979 ft | 445 kts | 17° |
| 2026-05-04 13:39 | 15.60900 | 78.21957 | 32979 ft | 445 kts | 17° |
| 2026-05-04 13:39 | 15.66896 | 78.23539 | 32979 ft | 445 kts | 17° |
| 2026-05-04 13:40 | 15.72845 | 78.25111 | 32979 ft | 445 kts | 17° |
| 2026-05-04 13:40 | 15.78840 | 78.26695 | 32974 ft | 445 kts | 17° |
| 2026-05-04 13:40 | 15.81823 | 78.27483 | 32668 ft | 445 kts | 17° |
| 2026-05-04 13:41 | 15.84832 | 78.28280 | 31887 ft | 449 kts | 17° |
| 2026-05-04 13:41 | 15.87837 | 78.29077 | 30956 ft | 454 kts | 17° |
| 2026-05-04 13:41 | 15.90883 | 78.29885 | 30050 ft | 457 kts | 16° |
| 2026-05-04 13:42 | 15.96941 | 78.31486 | 29022 ft | 445 kts | 16° |
| 2026-05-04 13:42 | 15.99894 | 78.32267 | 28544 ft | 439 kts | 16° |
| 2026-05-04 13:42 | 16.02820 | 78.33041 | 28068 ft | 433 kts | 16° |
| 2026-05-04 13:42 | 16.05729 | 78.33811 | 27592 ft | 428 kts | 16° |
| 2026-05-04 13:43 | 16.08571 | 78.34565 | 27123 ft | 423 kts | 16° |
| 2026-05-04 13:43 | 16.11418 | 78.35319 | 26651 ft | 418 kts | 16° |
| 2026-05-04 13:43 | 16.14223 | 78.36063 | 26179 ft | 414 kts | 16° |
| 2026-05-04 13:43 | 16.16964 | 78.36790 | 25718 ft | 410 kts | 16° |
| 2026-05-04 13:44 | 16.19731 | 78.37525 | 25247 ft | 406 kts | 16° |
| 2026-05-04 13:44 | 16.22423 | 78.38240 | 24786 ft | 403 kts | 16° |
| 2026-05-04 13:44 | 16.25105 | 78.38953 | 24323 ft | 399 kts | 15° |
| 2026-05-04 13:44 | 16.27773 | 78.39661 | 23860 ft | 396 kts | 15° |
| 2026-05-04 13:45 | 16.30432 | 78.40368 | 23395 ft | 393 kts | 15° |
| 2026-05-04 13:45 | 16.33061 | 78.41067 | 22933 ft | 390 kts | 15° |
| 2026-05-04 13:45 | 16.35655 | 78.41756 | 22473 ft | 387 kts | 15° |
| 2026-05-04 13:45 | 16.38258 | 78.42449 | 22009 ft | 385 kts | 15° |
| 2026-05-04 13:46 | 16.40838 | 78.43135 | 21545 ft | 382 kts | 15° |
| 2026-05-04 13:46 | 16.43389 | 78.43814 | 21084 ft | 379 kts | 15° |
| 2026-05-04 13:46 | 16.45929 | 78.44491 | 20622 ft | 377 kts | 15° |
| 2026-05-04 13:46 | 16.48481 | 78.45170 | 20155 ft | 374 kts | 15° |
| 2026-05-04 13:47 | 16.50958 | 78.45830 | 19699 ft | 372 kts | 15° |
| 2026-05-04 13:47 | 16.53447 | 78.46493 | 19239 ft | 369 kts | 15° |
| 2026-05-04 13:47 | 16.55929 | 78.47154 | 18777 ft | 367 kts | 15° |
| 2026-05-04 13:47 | 16.58368 | 78.47804 | 18322 ft | 365 kts | 15° |
| 2026-05-04 13:48 | 16.60897 | 78.48479 | 17845 ft | 363 kts | 15° |
| 2026-05-04 13:48 | 16.63383 | 78.49141 | 17371 ft | 360 kts | 15° |
| 2026-05-04 13:48 | 16.65988 | 78.49837 | 16875 ft | 358 kts | 15° |
| 2026-05-04 13:48 | 16.68529 | 78.50515 | 16390 ft | 356 kts | 15° |
| 2026-05-04 13:49 | 16.71098 | 78.51201 | 15900 ft | 353 kts | 15° |
| 2026-05-04 13:49 | 16.73462 | 78.51832 | 15452 ft | 351 kts | 14° |
| 2026-05-04 13:49 | 16.75803 | 78.52457 | 15005 ft | 349 kts | 14° |
| 2026-05-04 13:49 | 16.78133 | 78.53079 | 14557 ft | 347 kts | 14° |
| 2026-05-04 13:50 | 16.80456 | 78.53700 | 14108 ft | 345 kts | 14° |
| 2026-05-04 13:50 | 16.82790 | 78.54324 | 13654 ft | 343 kts | 14° |
| 2026-05-04 13:50 | 16.85070 | 78.54929 | 13208 ft | 342 kts | 14° |
| 2026-05-04 13:50 | 16.87369 | 78.55536 | 12756 ft | 340 kts | 14° |
| 2026-05-04 13:51 | 16.89633 | 78.56136 | 12309 ft | 339 kts | 14° |
| 2026-05-04 13:51 | 16.91920 | 78.56743 | 11855 ft | 337 kts | 14° |
| 2026-05-04 13:51 | 16.94171 | 78.57344 | 11406 ft | 334 kts | 14° |
| 2026-05-04 13:51 | 16.96393 | 78.57945 | 10958 ft | 332 kts | 14° |
| 2026-05-04 13:52 | 17.00813 | 78.59162 | 10057 ft | 327 kts | 14° |
| 2026-05-04 13:52 | 17.02994 | 78.59775 | 9606 ft | 324 kts | 14° |
| 2026-05-04 13:52 | 17.05169 | 78.60394 | 9152 ft | 321 kts | 14° |
| 2026-05-04 13:53 | 17.07305 | 78.61010 | 8702 ft | 319 kts | 14° |
| 2026-05-04 13:53 | 17.09388 | 78.61619 | 8267 ft | 309 kts | 14° |
| 2026-05-04 13:53 | 17.11424 | 78.62222 | 7795 ft | 294 kts | 14° |
| 2026-05-04 13:54 | 17.15154 | 78.63353 | 6798 ft | 276 kts | 14° |
| 2026-05-04 13:54 | 17.17019 | 78.63769 | 6077 ft | 273 kts | 360° |
| 2026-05-04 13:54 | 17.20520 | 78.62757 | 5164 ft | 258 kts | 334° |
| 2026-05-04 13:55 | 17.21974 | 78.61704 | 4969 ft | 255 kts | 309° |
| 2026-05-04 13:55 | 17.23093 | 78.58393 | 4483 ft | 242 kts | 272° |
| 2026-05-04 13:55 | 17.23105 | 78.56648 | 4161 ft | 235 kts | 268° |
| 2026-05-04 13:56 | 17.23054 | 78.54978 | 3843 ft | 223 kts | 268° |
| 2026-05-04 13:56 | 17.23018 | 78.53403 | 3603 ft | 210 kts | 268° |
| 2026-05-04 13:56 | 17.22984 | 78.50590 | 3104 ft | 178 kts | 268° |
| 2026-05-04 13:57 | 17.22969 | 78.49354 | 2791 ft | 163 kts | 268° |
| 2026-05-04 13:57 | 17.22954 | 78.48223 | 2569 ft | 152 kts | 267° |
| 2026-05-04 13:58 | 17.22915 | 78.44939 | 2053 ft | 143 kts | 266° |
| 2026-05-04 13:58 | 17.22890 | 78.43533 | 2026 ft | 46 kts | 269° |
| 2026-05-04 13:58 | 17.22884 | 78.43227 | 2014 ft | 41 kts | 268° |
| 2026-05-04 13:59 | 17.22959 | 78.42950 | 2006 ft | 39 kts | 301° |
| 2026-05-04 13:59 | 17.23069 | 78.42761 | 1997 ft | 20 kts | 309° |
| 2026-05-04 13:59 | 17.23304 | 78.42746 | 2000 ft | 12 kts | 57° |
| 2026-05-04 14:00 | 17.23328 | 78.42818 | 2003 ft | 9 kts | 85° |
| 2026-05-04 14:00 | 17.23381 | 78.42875 | 2004 ft | 6 kts | 2° |
| 2026-05-04 14:00 | 17.23430 | 78.42873 | 2003 ft | 0 kts | 358° |